Time,TemperatureF,DewpointF,PressureIn,WindDirection,WindDirectionDegrees,WindSpeedMPH,WindSpeedGustMPH,Humidity,HourlyPrecipIn,Conditions,Clouds,dailyrainin,SoftwareType,DateUTC
2013-07-07 00:05:00,78.1,75.0,30.09,ENE,60,0.0,3.0,90,0.00,,,0.00,weatherlink.com 1.10,2013-07-07 04:05:00,
2013-07-07 00:20:00,78.1,75.0,30.09,ENE,60,1.0,2.0,90,0.00,,,0.00,weatherlink.com 1.10,2013-07-07 04:20:00,
2013-07-07 00:35:00,78.1,75.0,30.09,ENE,60,0.0,2.0,90,0.00,,,0.00,weatherlink.com 1.10,2013-07-07 04:35:00,
2013-07-07 00:50:00,78.1,75.0,30.09,ENE,61,0.0,2.0,89,0.00,,,0.00,weatherlink.com 1.10,2013-07-07 04:50:00,
2013-07-07 01:05:00,78.0,75.0,30.09,ENE,61,0.0,1.0,90,0.00,,,0.00,weatherlink.com 1.10,2013-07-07 05:05:00,
2013-07-07 01:20:00,77.9,75.0,30.08,ENE,61,0.0,2.0,90,0.00,,,0.00,weatherlink.com 1.10,2013-07-07 05:20:00,
2013-07-07 01:35:00,77.6,75.0,30.08,NE,53,0.0,2.0,90,0.00,,,0.00,weatherlink.com 1.10,2013-07-07 05:35:00,
2013-07-07 01:50:00,77.3,74.0,30.08,NE,53,0.0,1.0,90,0.00,,,0.00,weatherlink.com 1.10,2013-07-07 05:50:00,
2013-07-07 02:05:00,77.0,74.0,30.07,NE,53,0.0,1.0,90,0.00,,,0.00,weatherlink.com 1.10,2013-07-07 06:05:00,
2013-07-07 02:20:00,76.7,74.0,30.07,NE,53,0.0,1.0,91,0.00,,,0.00,weatherlink.com 1.10,2013-07-07 06:20:00,
2013-07-07 02:35:00,76.6,74.0,30.07,NE,53,0.0,2.0,92,0.00,,,0.00,weatherlink.com 1.10,2013-07-07 06:35:00,
2013-07-07 02:50:00,76.4,74.0,30.07,NE,53,0.0,1.0,92,0.00,,,0.00,weatherlink.com 1.10,2013-07-07 06:50:00,
2013-07-07 03:05:00,76.1,74.0,30.07,NE,41,3.0,3.0,92,0.00,,,0.00,weatherlink.com 1.10,2013-07-07 07:05:00,
2013-07-07 03:20:00,76.0,74.0,30.07,NE,42,0.0,0.0,92,0.00,,,0.00,weatherlink.com 1.10,2013-07-07 07:20:00,
2013-07-07 03:35:00,75.8,73.0,30.07,NE,42,0.0,0.0,92,0.00,,,0.00,weatherlink.com 1.10,2013-07-07 07:35:00,
2013-07-07 03:51:00,75.5,73.0,30.07,NE,42,0.0,0.0,92,0.00,,,0.00,weatherlink.com 1.10,2013-07-07 07:51:00,
2013-07-07 04:06:00,75.1,73.0,30.06,NE,42,0.0,0.0,93,0.00,,,0.00,weatherlink.com 1.10,2013-07-07 08:06:00,
2013-07-07 04:21:00,74.8,73.0,30.06,NE,42,0.0,0.0,93,0.00,,,0.00,weatherlink.com 1.10,2013-07-07 08:21:00,
2013-07-07 04:36:00,74.4,72.0,30.06,NE,42,0.0,0.0,93,0.00,,,0.00,weatherlink.com 1.10,2013-07-07 08:36:00,
2013-07-07 04:51:00,74.1,72.0,30.06,NE,42,0.0,0.0,93,0.00,,,0.00,weatherlink.com 1.10,2013-07-07 08:51:00,
2013-07-07 05:06:00,73.8,72.0,30.05,NE,42,0.0,0.0,93,0.00,,,0.00,weatherlink.com 1.10,2013-07-07 09:06:00,
2013-07-07 05:21:00,73.5,71.0,30.06,NE,42,0.0,0.0,93,0.00,,,0.00,weatherlink.com 1.10,2013-07-07 09:21:00,
2013-07-07 05:36:00,73.7,72.0,30.06,NE,42,0.0,0.0,94,0.00,,,0.00,weatherlink.com 1.10,2013-07-07 09:36:00,
2013-07-07 05:51:00,74.0,73.0,30.05,NE,42,1.0,3.0,95,0.00,,,0.00,weatherlink.com 1.10,2013-07-07 09:51:00,
2013-07-07 06:06:00,74.6,73.0,30.06,NE,55,2.0,4.0,96,0.00,,,0.00,weatherlink.com 1.10,2013-07-07 10:06:00,
2013-07-07 06:21:00,74.6,73.0,30.06,NE,53,0.0,3.0,96,0.00,,,0.00,weatherlink.com 1.10,2013-07-07 10:21:00,
2013-07-07 06:36:00,74.6,73.0,30.06,ENE,68,0.0,4.0,96,0.00,,,0.00,weatherlink.com 1.10,2013-07-07 10:36:00,
2013-07-07 06:51:00,74.5,73.0,30.07,ENE,69,0.0,3.0,96,0.00,,,0.00,weatherlink.com 1.10,2013-07-07 10:51:00,
2013-07-07 07:06:00,74.7,74.0,30.07,ENE,57,3.0,4.0,96,0.00,,,0.00,weatherlink.com 1.10,2013-07-07 11:06:00,
2013-07-07 07:21:00,74.8,74.0,30.07,ENE,57,2.0,3.0,96,0.00,,,0.00,weatherlink.com 1.10,2013-07-07 11:21:00,
2013-07-07 07:36:00,75.5,74.0,30.07,ENE,76,2.0,4.0,96,0.00,,,0.00,weatherlink.com 1.10,2013-07-07 11:36:00,
2013-07-07 07:51:00,76.4,75.0,30.07,NE,47,3.0,5.0,96,0.00,,,0.00,weatherlink.com 1.10,2013-07-07 11:51:00,
2013-07-07 08:06:00,77.4,76.0,30.08,ENE,63,2.0,3.0,96,0.00,,,0.00,weatherlink.com 1.10,2013-07-07 12:06:00,
2013-07-07 08:21:00,78.4,77.0,30.09,ENE,61,0.0,5.0,94,0.00,,,0.00,weatherlink.com 1.10,2013-07-07 12:21:00,
2013-07-07 08:36:00,79.7,77.0,30.09,NE,42,4.0,8.0,90,0.00,,,0.00,weatherlink.com 1.10,2013-07-07 12:36:00,
2013-07-07 08:51:00,80.9,77.0,30.10,ESE,109,4.0,8.0,87,0.00,,,0.00,weatherlink.com 1.10,2013-07-07 12:51:00,
2013-07-07 09:06:00,81.6,77.0,30.10,ENE,64,2.0,7.0,86,0.00,,,0.00,weatherlink.com 1.10,2013-07-07 13:06:00,
2013-07-07 09:21:00,82.1,77.0,30.10,NE,55,5.0,10.0,84,0.00,,,0.00,weatherlink.com 1.10,2013-07-07 13:21:00,
2013-07-07 09:36:00,83.5,78.0,30.10,NNE,29,0.0,5.0,82,0.00,,,0.00,weatherlink.com 1.10,2013-07-07 13:36:00,
2013-07-07 09:51:00,83.3,77.0,30.10,ENE,59,5.0,7.0,80,0.00,,,0.00,weatherlink.com 1.10,2013-07-07 13:51:00,
2013-07-07 10:06:00,84.5,77.0,30.11,NE,55,3.0,7.0,78,0.00,,,0.00,weatherlink.com 1.10,2013-07-07 14:06:00,
2013-07-07 10:21:00,85.3,77.0,30.11,NE,36,0.0,13.0,75,0.00,,,0.00,weatherlink.com 1.10,2013-07-07 14:21:00,
2013-07-07 10:36:00,85.8,77.0,30.11,ENE,78,7.0,8.0,75,0.00,,,0.00,weatherlink.com 1.10,2013-07-07 14:36:00,
2013-07-07 10:51:00,84.8,77.0,30.11,ENE,74,1.0,7.0,77,0.00,,,0.00,weatherlink.com 1.10,2013-07-07 14:51:00,
2013-07-07 11:06:00,85.4,77.0,30.11,ENE,57,3.0,7.0,75,0.00,,,0.00,weatherlink.com 1.10,2013-07-07 15:06:00,
2013-07-07 11:21:00,85.2,78.0,30.11,NNE,31,6.0,7.0,78,0.00,,,0.00,weatherlink.com 1.10,2013-07-07 15:21:00,
2013-07-07 11:36:00,85.4,76.0,30.10,NE,46,0.0,8.0,73,0.00,,,0.00,weatherlink.com 1.10,2013-07-07 15:36:00,
2013-07-07 11:51:00,84.5,77.0,30.10,NE,49,1.0,8.0,78,0.00,,,0.00,weatherlink.com 1.10,2013-07-07 15:51:00,
2013-07-07 12:06:00,87.1,77.0,30.09,ENE,59,3.0,8.0,72,0.00,,,0.00,weatherlink.com 1.10,2013-07-07 16:06:00,
2013-07-07 12:21:00,86.6,77.0,30.09,NE,43,6.0,9.0,73,0.00,,,0.00,weatherlink.com 1.10,2013-07-07 16:21:00,
2013-07-07 12:36:00,88.5,77.0,30.09,ENE,76,3.0,11.0,68,0.00,,,0.00,weatherlink.com 1.10,2013-07-07 16:36:00,
2013-07-07 12:51:00,88.5,76.0,30.09,ENE,61,3.0,11.0,67,0.00,,,0.00,weatherlink.com 1.10,2013-07-07 16:51:00,
2013-07-07 13:07:00,89.8,77.0,30.08,NE,38,3.0,12.0,66,0.00,,,0.00,weatherlink.com 1.10,2013-07-07 17:07:00,
2013-07-07 13:22:00,89.7,76.0,30.08,NE,45,2.0,11.0,64,0.00,,,0.00,weatherlink.com 1.10,2013-07-07 17:22:00,
2013-07-07 13:37:00,85.8,76.0,30.08,ENE,66,0.0,4.0,72,0.00,,,0.00,weatherlink.com 1.10,2013-07-07 17:37:00,
2013-07-07 13:53:00,89.4,77.0,30.07,NE,42,6.0,8.0,66,0.00,,,0.00,weatherlink.com 1.10,2013-07-07 17:53:00,
2013-07-07 14:07:00,89.6,76.0,30.07,ENE,74,1.0,6.0,65,0.00,,,0.00,weatherlink.com 1.10,2013-07-07 18:07:00,
2013-07-07 14:22:00,89.1,75.0,30.06,NE,36,4.0,13.0,64,0.00,,,0.00,weatherlink.com 1.10,2013-07-07 18:22:00,
2013-07-07 14:37:00,88.0,75.0,30.06,East,89,5.0,14.0,66,0.00,,,0.00,weatherlink.com 1.10,2013-07-07 18:37:00,
2013-07-07 14:52:00,89.0,75.0,30.06,NE,42,9.0,12.0,64,0.00,,,0.00,weatherlink.com 1.10,2013-07-07 18:52:00,
2013-07-07 15:07:00,90.6,74.0,30.06,ENE,78,5.0,9.0,58,0.00,,,0.00,weatherlink.com 1.10,2013-07-07 19:07:00,
2013-07-07 15:22:00,90.5,74.0,30.05,ENE,59,3.0,12.0,59,0.00,,,0.00,weatherlink.com 1.10,2013-07-07 19:22:00,
2013-07-07 15:37:00,90.7,75.0,30.05,NE,51,2.0,11.0,61,0.00,,,0.00,weatherlink.com 1.10,2013-07-07 19:37:00,
2013-07-07 15:52:00,90.7,75.0,30.04,ENE,67,9.0,12.0,60,0.00,,,0.00,weatherlink.com 1.10,2013-07-07 19:52:00,
2013-07-07 16:07:00,90.0,75.0,30.04,ENE,75,4.0,11.0,62,0.00,,,0.00,weatherlink.com 1.10,2013-07-07 20:07:00,
2013-07-07 16:22:00,90.1,76.0,30.04,NE,51,5.0,11.0,63,0.00,,,0.00,weatherlink.com 1.10,2013-07-07 20:22:00,
2013-07-07 16:37:00,89.7,74.0,30.03,NNE,16,6.0,12.0,61,0.00,,,0.00,weatherlink.com 1.10,2013-07-07 20:37:00,
2013-07-07 16:52:00,89.6,74.0,30.03,East,88,5.0,11.0,60,0.00,,,0.00,weatherlink.com 1.10,2013-07-07 20:52:00,
2013-07-07 17:07:00,89.9,74.0,30.03,ENE,73,2.0,11.0,60,0.00,,,0.00,weatherlink.com 1.10,2013-07-07 21:07:00,
2013-07-07 17:22:00,90.4,76.0,30.03,ESE,102,5.0,13.0,62,0.00,,,0.00,weatherlink.com 1.10,2013-07-07 21:22:00,
2013-07-07 17:37:00,87.8,75.0,30.03,ENE,57,1.0,7.0,66,0.00,,,0.00,weatherlink.com 1.10,2013-07-07 21:37:00,
2013-07-07 17:52:00,89.1,74.0,30.02,NE,54,4.0,6.0,62,0.00,,,0.00,weatherlink.com 1.10,2013-07-07 21:52:00,
2013-07-07 18:07:00,89.2,74.0,30.02,NE,51,2.0,10.0,62,0.00,,,0.00,weatherlink.com 1.10,2013-07-07 22:07:00,
2013-07-07 18:22:00,87.6,74.0,30.02,ENE,77,4.0,9.0,65,0.00,,,0.00,weatherlink.com 1.10,2013-07-07 22:22:00,
2013-07-07 18:37:00,87.3,75.0,30.02,NE,40,6.0,10.0,67,0.00,,,0.00,weatherlink.com 1.10,2013-07-07 22:37:00,
2013-07-07 18:52:00,87.4,75.0,30.02,ENE,67,5.0,9.0,67,0.00,,,0.00,weatherlink.com 1.10,2013-07-07 22:52:00,
2013-07-07 19:07:00,86.8,74.0,30.02,East,83,0.0,11.0,66,0.00,,,0.00,weatherlink.com 1.10,2013-07-07 23:07:00,
2013-07-07 19:22:00,86.3,75.0,30.03,NE,46,0.0,7.0,68,0.00,,,0.00,weatherlink.com 1.10,2013-07-07 23:22:00,
2013-07-07 19:37:00,85.7,74.0,30.03,ENE,71,3.0,9.0,68,0.00,,,0.00,weatherlink.com 1.10,2013-07-07 23:37:00,
2013-07-07 19:52:00,85.0,74.0,30.04,NE,56,2.0,8.0,70,0.00,,,0.00,weatherlink.com 1.10,2013-07-07 23:52:00,
2013-07-07 20:07:00,84.1,74.0,30.04,NE,54,1.0,7.0,72,0.00,,,0.00,weatherlink.com 1.10,2013-07-08 00:07:00,
2013-07-07 20:22:00,83.4,74.0,30.05,NE,44,3.0,5.0,74,0.00,,,0.00,weatherlink.com 1.10,2013-07-08 00:22:00,
2013-07-07 20:37:00,82.7,74.0,30.05,ENE,66,0.0,5.0,75,0.00,,,0.00,weatherlink.com 1.10,2013-07-08 00:37:00,
2013-07-07 20:52:00,82.2,74.0,30.06,ENE,76,2.0,6.0,76,0.00,,,0.00,weatherlink.com 1.10,2013-07-08 00:52:00,
2013-07-07 21:07:00,81.7,74.0,30.07,ENE,74,1.0,4.0,78,0.00,,,0.00,weatherlink.com 1.10,2013-07-08 01:07:00,
2013-07-07 21:22:00,81.2,75.0,30.07,NE,53,1.0,4.0,80,0.00,,,0.00,weatherlink.com 1.10,2013-07-08 01:22:00,
2013-07-07 21:37:00,80.7,74.0,30.08,ENE,61,2.0,3.0,81,0.00,,,0.00,weatherlink.com 1.10,2013-07-08 01:37:00,
2013-07-07 21:52:00,80.3,74.0,30.09,ENE,73,2.0,3.0,82,0.00,,,0.00,weatherlink.com 1.10,2013-07-08 01:52:00,
2013-07-07 22:07:00,80.0,74.0,30.09,ENE,69,1.0,5.0,83,0.00,,,0.00,weatherlink.com 1.10,2013-07-08 02:07:00,
2013-07-07 22:22:00,79.7,75.0,30.09,ENE,63,1.0,3.0,84,0.00,,,0.00,weatherlink.com 1.10,2013-07-08 02:22:00,
2013-07-07 22:37:00,79.3,75.0,30.10,NE,50,0.0,4.0,85,0.00,,,0.00,weatherlink.com 1.10,2013-07-08 02:37:00,
2013-07-07 22:52:00,79.0,75.0,30.11,ENE,59,1.0,2.0,86,0.00,,,0.00,weatherlink.com 1.10,2013-07-08 02:52:00,
2013-07-07 23:07:00,78.7,75.0,30.11,ENE,61,2.0,6.0,87,0.00,,,0.00,weatherlink.com 1.10,2013-07-08 03:07:00,
2013-07-07 23:22:00,78.5,75.0,30.12,NE,55,2.0,4.0,88,0.00,,,0.00,weatherlink.com 1.10,2013-07-08 03:22:00,
2013-07-07 23:37:00,78.2,74.0,30.12,NE,55,0.0,1.0,88,0.00,,,0.00,weatherlink.com 1.10,2013-07-08 03:37:00,
2013-07-07 23:52:00,77.8,74.0,30.12,NE,55,0.0,0.0,89,0.00,,,0.00,weatherlink.com 1.10,2013-07-08 03:52:00,